Dayton, MT (59914)

8:11 PM MDT on August 29, 2015 (GMT -0600)
Blacktail Road | | Change Station
CLOSE
Current Station
Personal Weather Station
Location: Lakeside, MT
Elevation: 3130 ft
Nearby Weather Stations

Elev 3130 ft 48.01 °N, 114.24 °W | Updated 18 seconds ago

Overcast
Overcast
72.9 °F
Feels Like 77 °F
N
2.5
Wind Variable Wind from ESE
Gusts 4.9 mph

Today
High -- | Low -- °F
--% Chance of Precip.
Yesterday
High -- | Low -- °F
Precip. -- in
6:51 AM 8:24 PM
Full, 100% visible
Pressure 29.77 in
Visibility 4.0 miles
Clouds Overcast 3000 ft
Heat Index 77 °F
Dew Point 47 °F
Humidity 39%
Rainfall 0.00 in
Snow Depth Not available.
UV 0.0 out of 12
Pollen 8.50 out of 12
Air Quality Not available.
Flu Activity Not available.
METAR KMSO 300153Z 34010KT 4SM HZ OVC030 24/07 A2981 RMK AO2 SLP080 T02390067
Pressure 29.77 in
Visibility 4.0 miles
Clouds Overcast 3000 ft
Heat Index 77 °F
Dew Point 47 °F
Humidity 39%
Rainfall 0.00 in
Snow Depth Not available.
UV 0.0 out of 12
Pollen 8.50 out of 12
Air Quality Not available.
Flu Activity Not available.
METAR KMSO 300153Z 34010KT 4SM HZ OVC030 24/07 A2981 RMK AO2 SLP080 T02390067

10-Day Weather Forecast

×

Almanac

Astronomy

Aug. 29, 2015 Rise Set
Actual Time
Civil Twilight
Nautical Twilight
Astronomical Twilight
Moon
Length of Visible Light
Length of Day
Tomorrow will be .
, % of the Moon is Illuminated

Today's Extremes

State Highs State Lows

Community

WunderPhotos

Upload Photos

1,850,849 photos uploaded!

WunderBlogs® & News

Nearby

Air Quality

  Air Quality AQ Index Pollutant
Not available.

Snow Depth

Station Depth Elevation

Earthquake Activity

City Distance Mag. Time & Date
Minimum magnitude displayed is 2.5.

Coastal Water Temperatures

Place Temperature

Stations

Nearby Weather Stations

Station Location Temp. Windchill Dew Point Humidity Wind Precip. Elev Updated Type